Time;durP1;ratioP1;P1;durP2;ratioP2;P2;SDS_P1;SDS_P2;PMS_P1;PMS_P2;Temp;Humidity;BMP_temperature;BMP_pressure;BME280_temperature;BME280_humidity;BME280_pressure;Samples;Min_cycle;Max_cycle;Signal;HPM_P1;HPM_P2
2022/11/01 00:01:30;;;;;;;7.47;3.67;;;17.70;99.90;;;;;;5037084;28;21072;-84
2022/11/01 00:03:57;;;;;;;9.17;2.90;;;17.70;99.90;;;;;;5045600;28;20538;-83
2022/11/01 00:06:24;;;;;;;9.70;3.60;;;17.80;99.90;;;;;;5057754;28;20451;-84
2022/11/01 00:08:51;;;;;;;8.63;3.57;;;17.80;99.90;;;;;;5049067;28;20453;-82
2022/11/01 00:11:20;;;;;;;8.93;2.90;;;17.90;99.90;;;;;;5044194;28;20472;-82
2022/11/01 00:13:48;;;;;;;7.40;3.73;;;17.90;99.90;;;;;;5057687;28;20513;-83
2022/11/01 00:16:16;;;;;;;7.57;4.00;;;17.80;99.90;;;;;;5042877;28;20456;-84
2022/11/01 00:18:43;;;;;;;7.97;3.10;;;17.90;99.90;;;;;;5044520;28;20629;-84
2022/11/01 00:21:10;;;;;;;7.80;3.13;;;17.90;99.90;;;;;;5037991;28;20968;-83
2022/11/01 00:23:38;;;;;;;6.37;2.70;;;17.90;99.90;;;;;;5039661;28;20948;-84
2022/11/01 00:26:06;;;;;;;6.17;3.00;;;17.90;99.90;;;;;;5036832;28;21031;-81
2022/11/01 00:28:35;;;;;;;7.60;3.10;;;17.90;99.90;;;;;;5035638;28;20975;-84
2022/11/01 00:31:01;;;;;;;7.40;2.90;;;17.90;99.90;;;;;;5039149;28;20480;-82
2022/11/01 00:33:28;;;;;;;8.73;3.30;;;17.90;99.90;;;;;;5036716;28;20453;-83
2022/11/01 00:36:00;;;;;;;10.73;3.50;;;17.80;99.90;;;;;;5037005;28;20515;-82
2022/11/01 00:38:27;;;;;;;6.40;2.93;;;17.80;99.90;;;;;;5035721;28;20449;-82
2022/11/01 00:40:54;;;;;;;11.30;4.00;;;17.80;99.90;;;;;;5052586;28;20553;-83
2022/11/01 00:43:22;;;;;;;6.70;3.50;;;17.90;99.90;;;;;;5040578;28;20456;-83
2022/11/01 00:45:50;;;;;;;8.00;3.30;;;17.80;99.90;;;;;;5037408;28;20517;-84
2022/11/01 00:48:17;;;;;;;7.20;3.13;;;17.80;99.90;;;;;;5035263;28;20895;-83
2022/11/01 00:50:44;;;;;;;4.80;3.00;;;17.90;99.90;;;;;;5052874;28;20851;-83
2022/11/01 00:53:12;;;;;;;5.87;3.20;;;17.80;99.90;;;;;;5039760;28;20463;-84
2022/11/01 00:55:39;;;;;;;9.57;4.23;;;17.80;99.90;;;;;;5053548;28;20517;-84
2022/11/01 00:58:06;;;;;;;5.17;3.00;;;17.70;99.90;;;;;;5060148;28;20461;-81
2022/11/01 01:00:33;;;;;;;6.00;3.20;;;17.70;99.90;;;;;;5047948;28;20455;-83
2022/11/01 01:03:01;;;;;;;6.73;3.13;;;17.70;99.90;;;;;;5057663;28;20463;-82
2022/11/01 01:05:28;;;;;;;11.13;3.73;;;17.60;99.90;;;;;;5049372;28;20453;-83
2022/11/01 01:07:55;;;;;;;14.10;3.87;;;17.50;99.90;;;;;;5038799;28;20517;-84
2022/11/01 01:10:22;;;;;;;8.53;3.70;;;17.40;99.90;;;;;;5047538;28;20550;-83
2022/11/01 01:12:49;;;;;;;9.43;3.43;;;17.40;99.90;;;;;;5047301;28;20471;-83
2022/11/01 01:15:16;;;;;;;8.67;3.57;;;17.30;99.90;;;;;;5060034;28;20599;-83
2022/11/01 01:17:42;;;;;;;6.40;3.27;;;17.30;99.90;;;;;;5056014;28;21004;-83
2022/11/01 01:20:13;;;;;;;6.17;3.60;;;17.30;99.90;;;;;;5038590;28;20455;-84
2022/11/01 01:22:40;;;;;;;6.27;3.57;;;17.30;99.90;;;;;;5050939;28;20476;-84
2022/11/01 01:25:07;;;;;;;7.03;3.37;;;17.20;99.90;;;;;;5039005;28;20466;-83
2022/11/01 01:27:34;;;;;;;6.37;3.50;;;17.20;99.90;;;;;;5038878;28;20451;-84
2022/11/01 01:30:01;;;;;;;11.90;3.63;;;17.20;99.90;;;;;;5058286;28;20454;-83
2022/11/01 01:32:27;;;;;;;9.17;3.73;;;17.10;99.90;;;;;;5046337;28;20472;-82
2022/11/01 01:34:54;;;;;;;6.33;3.40;;;17.10;99.90;;;;;;5054977;28;20489;-84
2022/11/01 01:37:22;;;;;;;6.13;3.60;;;17.00;99.90;;;;;;5058301;28;20459;-84
2022/11/01 01:39:49;;;;;;;6.87;4.30;;;17.00;99.90;;;;;;5040017;28;20842;-84
2022/11/01 01:42:23;;;;;;;7.83;3.03;;;16.90;99.90;;;;;;5048812;28;20482;-83
2022/11/01 01:45:20;;;;;;;4.80;3.50;;;16.90;99.90;;;;;;5053043;28;20478;-84
2022/11/01 01:47:51;;;;;;;8.40;3.33;;;16.90;99.90;;;;;;5059022;28;20436;-83
2022/11/01 01:50:23;;;;;;;5.73;3.50;;;16.90;99.90;;;;;;5018724;28;20779;-82
2022/11/01 01:52:54;;;;;;;10.10;4.13;;;16.80;99.90;;;;;;5045536;28;20467;-83
2022/11/01 01:55:24;;;;;;;6.30;3.50;;;16.80;99.90;;;;;;5057397;28;20476;-83
2022/11/01 01:57:53;;;;;;;9.87;4.10;;;16.80;99.90;;;;;;5057163;28;20455;-83
2022/11/01 02:00:20;;;;;;;8.60;4.17;;;16.90;99.90;;;;;;5038302;28;20459;-84
2022/11/01 02:02:47;;;;;;;7.33;3.60;;;16.80;99.90;;;;;;5051958;28;20893;-83
2022/11/01 02:05:22;;;;;;;5.80;3.77;;;16.80;99.90;;;;;;5040218;28;20552;-83
2022/11/01 02:07:51;;;;;;;7.20;3.53;;;16.90;99.90;;;;;;5039107;28;20451;-87
2022/11/01 02:10:18;;;;;;;9.17;3.90;;;16.90;99.90;;;;;;5054033;28;20464;-82
2022/11/01 02:12:47;;;;;;;8.03;4.10;;;16.90;99.90;;;;;;5054898;28;20525;-82
2022/11/01 02:15:14;;;;;;;6.70;3.27;;;16.90;99.90;;;;;;5057619;28;20483;-84
2022/11/01 02:18:02;;;;;;;6.20;3.50;;;17.00;99.90;;;;;;5046377;28;20473;-82
2022/11/01 02:20:46;;;;;;;8.03;2.80;;;17.10;99.90;;;;;;5047966;28;20543;-83
2022/11/01 02:23:48;;;;;;;5.80;4.00;;;17.10;99.90;;;;;;5043100;28;20550;-83
2022/11/01 02:26:47;;;;;;;7.37;4.10;;;17.10;99.90;;;;;;5035741;28;20451;-81
2022/11/01 02:29:28;;;;;;;6.87;3.70;;;17.10;99.90;;;;;;5056078;28;20456;-84
2022/11/01 02:32:12;;;;;;;9.03;4.20;;;17.20;99.90;;;;;;5047587;28;20469;-81
2022/11/01 02:34:46;;;;;;;7.37;3.33;;;17.10;99.90;;;;;;5056425;28;21018;-81
2022/11/01 02:37:19;;;;;;;8.53;3.37;;;17.10;99.90;;;;;;5037126;28;20450;-83
2022/11/01 02:39:51;;;;;;;4.90;2.70;;;17.10;99.90;;;;;;5042630;28;20530;-81
2022/11/01 02:42:21;;;;;;;7.70;3.57;;;17.10;99.90;;;;;;5036908;28;20478;-82
2022/11/01 02:44:55;;;;;;;9.67;3.70;;;17.10;99.90;;;;;;5036891;28;20446;-81
2022/11/01 02:47:24;;;;;;;5.83;3.20;;;17.20;99.90;;;;;;5055166;28;20460;-84
2022/11/01 02:49:55;;;;;;;4.50;2.67;;;17.20;99.90;;;;;;5054651;28;20459;-83
2022/11/01 02:52:25;;;;;;;5.83;3.50;;;17.20;99.90;;;;;;5055571;28;20467;-82
2022/11/01 02:54:53;;;;;;;8.93;3.70;;;17.20;99.90;;;;;;5054020;28;20530;-82
2022/11/01 02:57:29;;;;;;;6.10;3.00;;;17.10;99.90;;;;;;5038605;28;20456;-82
2022/11/01 03:00:02;;;;;;;11.60;3.20;;;17.10;99.90;;;;;;5040786;28;20541;-81
2022/11/01 03:02:41;;;;;;;12.10;4.30;;;17.00;99.90;;;;;;5053052;28;20482;-81
2022/11/01 03:05:14;;;;;;;7.80;3.83;;;17.00;99.90;;;;;;5054258;28;20514;-82
2022/11/01 03:07:44;;;;;;;5.93;3.10;;;16.90;99.90;;;;;;5037594;28;20456;-87
2022/11/01 03:10:11;;;;;;;10.43;3.67;;;16.90;99.90;;;;;;5042397;28;20468;-84
2022/11/01 03:12:48;;;;;;;7.83;3.57;;;16.90;99.90;;;;;;5036893;28;20483;-84
2022/11/01 03:15:20;;;;;;;5.20;3.20;;;17.00;99.90;;;;;;5039703;28;20474;-83
2022/11/01 03:17:59;;;;;;;7.27;2.87;;;17.00;99.90;;;;;;5057273;28;20825;-88
2022/11/01 03:20:46;;;;;;;4.57;2.80;;;17.00;99.90;;;;;;5048455;28;20457;-83
2022/11/01 03:23:16;;;;;;;5.53;3.20;;;16.90;99.90;;;;;;5057937;28;20499;-84
2022/11/01 03:25:47;;;;;;;10.67;3.77;;;16.90;99.90;;;;;;5055130;28;20437;-82
2022/11/01 03:28:19;;;;;;;5.20;3.10;;;16.90;99.90;;;;;;5056386;28;20429;-84
2022/11/01 03:30:50;;;;;;;4.50;3.00;;;16.90;99.90;;;;;;5050430;28;20458;-82
2022/11/01 03:33:19;;;;;;;4.27;2.97;;;16.80;99.90;;;;;;5036137;28;20446;-81
2022/11/01 03:35:51;;;;;;;6.87;3.30;;;16.80;99.90;;;;;;5038957;28;20480;-81
2022/11/01 03:38:20;;;;;;;4.17;2.80;;;16.80;99.90;;;;;;5055272;28;20447;-81
2022/11/01 03:40:52;;;;;;;5.10;2.67;;;16.80;99.90;;;;;;5049208;28;20447;-82
2022/11/01 03:43:21;;;;;;;3.93;2.27;;;16.80;99.90;;;;;;5055492;28;20435;-81
2022/11/01 03:45:47;;;;;;;6.23;3.00;;;16.80;99.90;;;;;;5047760;28;20514;-82
2022/11/01 03:48:14;;;;;;;7.37;3.90;;;16.90;99.90;;;;;;5034455;28;20449;-82
2022/11/01 03:50:48;;;;;;;7.87;3.83;;;16.80;99.90;;;;;;5044426;28;20852;-82
2022/11/01 03:53:15;;;;;;;4.53;3.03;;;16.90;99.90;;;;;;5053134;28;20480;-83
2022/11/01 03:55:42;;;;;;;5.00;3.20;;;16.90;99.90;;;;;;5035669;28;20484;-81
2022/11/01 03:58:10;;;;;;;6.23;2.90;;;16.90;99.90;;;;;;5035311;28;20856;-81
2022/11/01 04:00:38;;;;;;;6.37;3.40;;;16.90;99.90;;;;;;5040141;28;20463;-82
2022/11/01 04:03:06;;;;;;;4.00;3.03;;;17.00;99.90;;;;;;5035647;28;20453;-80
2022/11/01 04:05:34;;;;;;;7.93;3.37;;;17.00;99.90;;;;;;5050598;28;20449;-82
2022/11/01 04:08:02;;;;;;;6.83;3.67;;;17.00;99.90;;;;;;5054540;28;20957;-81
2022/11/01 04:10:29;;;;;;;7.57;4.00;;;17.00;99.90;;;;;;5039807;28;20456;-81
2022/11/01 04:12:57;;;;;;;6.73;3.17;;;17.00;99.90;;;;;;5034791;28;20456;-83
2022/11/01 04:21:01;;;;;;;5.87;3.00;;;17.00;99.90;;;;;;5039364;28;20467;-82
2022/11/01 04:23:29;;;;;;;4.13;2.43;;;16.90;99.90;;;;;;5036531;28;20479;-81
2022/11/01 04:25:56;;;;;;;9.43;3.80;;;16.90;99.90;;;;;;5061246;28;20511;-84
2022/11/01 04:28:22;;;;;;;5.80;3.63;;;16.90;99.90;;;;;;5074199;28;20755;-83
2022/11/01 04:30:49;;;;;;;7.10;3.50;;;17.00;99.90;;;;;;5068302;28;20563;-84
2022/11/01 04:33:16;;;;;;;5.13;2.97;;;17.00;99.90;;;;;;5057737;28;20513;-85
2022/11/01 04:35:43;;;;;;;4.87;2.70;;;17.00;99.90;;;;;;5045590;28;20489;-85
2022/11/01 04:38:11;;;;;;;7.07;3.30;;;17.10;99.90;;;;;;5040735;28;20483;-83
2022/11/01 04:40:40;;;;;;;8.53;3.30;;;17.10;99.90;;;;;;5037689;28;20476;-84
2022/11/01 04:43:07;;;;;;;7.83;3.50;;;17.20;99.90;;;;;;5056315;28;20532;-82
2022/11/01 04:45:34;;;;;;;4.80;2.63;;;17.10;99.90;;;;;;5041511;28;20453;-84
2022/11/01 04:48:02;;;;;;;5.00;3.00;;;17.20;99.90;;;;;;5035766;28;20458;-82
2022/11/01 04:50:29;;;;;;;4.23;2.77;;;17.10;99.90;;;;;;5038515;28;20455;-82
2022/11/01 04:52:58;;;;;;;4.60;2.90;;;17.20;99.90;;;;;;5036036;28;20453;-83
2022/11/01 04:55:25;;;;;;;4.17;2.50;;;17.20;99.90;;;;;;5041320;28;20571;-84
2022/11/01 04:57:53;;;;;;;6.80;2.70;;;17.20;99.90;;;;;;5038846;28;20461;-82
2022/11/01 05:00:21;;;;;;;4.13;2.63;;;17.20;99.90;;;;;;5036723;28;20449;-85
2022/11/01 05:02:48;;;;;;;8.10;3.10;;;17.10;99.90;;;;;;5035678;28;20858;-81
2022/11/01 05:05:16;;;;;;;8.07;2.43;;;17.20;99.90;;;;;;5034129;28;20526;-81
2022/11/01 05:07:43;;;;;;;4.40;3.03;;;17.10;99.90;;;;;;5042784;28;20453;-81
2022/11/01 05:10:10;;;;;;;5.50;2.73;;;17.20;99.90;;;;;;5038414;28;20482;-82
2022/11/01 05:12:37;;;;;;;4.80;2.57;;;17.20;99.90;;;;;;5044844;28;20471;-82
2022/11/01 05:17:46;;;;;;;3.90;3.20;;;17.10;99.90;;;;;;5071492;28;20464;-81
2022/11/01 05:20:13;;;;;;;3.63;2.43;;;17.20;99.90;;;;;;5077554;28;20585;-81
2022/11/01 05:22:39;;;;;;;7.60;3.10;;;17.20;99.90;;;;;;5077330;28;20514;-81
2022/11/01 05:25:08;;;;;;;5.50;2.63;;;17.20;99.90;;;;;;5078224;28;20439;-79
2022/11/01 05:27:35;;;;;;;7.03;3.20;;;17.20;99.90;;;;;;5056238;28;20468;-81
2022/11/01 05:30:02;;;;;;;7.07;3.60;;;17.20;99.90;;;;;;5069221;28;20453;-81
2022/11/01 05:32:28;;;;;;;4.87;2.63;;;17.20;99.90;;;;;;5073595;28;20446;-80
2022/11/01 05:34:57;;;;;;;5.80;2.53;;;17.20;99.90;;;;;;5057426;28;20496;-80
2022/11/01 05:37:23;;;;;;;10.50;3.20;;;17.30;99.90;;;;;;5061884;28;20560;-80
2022/11/01 05:39:50;;;;;;;9.73;3.27;;;17.20;99.90;;;;;;5062104;28;20456;-80
2022/11/01 05:42:17;;;;;;;4.43;2.83;;;17.30;99.90;;;;;;5060426;28;20511;-80
2022/11/01 05:44:44;;;;;;;6.93;2.67;;;17.30;99.90;;;;;;5066381;28;20617;-79
2022/11/01 05:47:11;;;;;;;5.17;2.97;;;17.30;99.90;;;;;;5080416;28;20533;-79
2022/11/01 05:49:37;;;;;;;4.30;2.60;;;17.30;99.90;;;;;;5078074;28;20542;-80
2022/11/01 05:52:06;;;;;;;8.43;2.90;;;17.20;99.90;;;;;;5073145;28;21009;-81
2022/11/01 05:54:32;;;;;;;5.03;2.33;;;17.20;99.90;;;;;;5060861;28;20454;-80
2022/11/01 05:56:59;;;;;;;4.30;2.40;;;17.20;99.90;;;;;;5059274;28;20501;-80
2022/11/01 05:59:26;;;;;;;5.10;2.43;;;17.20;99.90;;;;;;5063178;28;20457;-78
2022/11/01 06:01:53;;;;;;;6.73;2.97;;;17.20;99.90;;;;;;5061907;28;20544;-80
2022/11/01 06:04:21;;;;;;;5.77;3.27;;;17.20;99.90;;;;;;5062515;28;20879;-80
2022/11/01 06:06:48;;;;;;;6.30;3.03;;;17.20;99.90;;;;;;5081616;28;20511;-80
2022/11/01 06:09:16;;;;;;;10.73;2.80;;;17.20;99.90;;;;;;5075809;28;20543;-81
2022/11/01 06:11:43;;;;;;;6.70;2.50;;;17.20;99.90;;;;;;5062124;28;20560;-81
2022/11/01 06:14:11;;;;;;;7.17;2.83;;;17.20;99.90;;;;;;5062768;28;20968;-79
2022/11/01 06:16:38;;;;;;;5.03;2.40;;;17.20;99.90;;;;;;5076555;28;20485;-79
2022/11/01 06:19:05;;;;;;;7.57;2.77;;;17.10;99.90;;;;;;5075387;28;20538;-79
2022/11/01 06:21:32;;;;;;;5.33;2.70;;;17.10;99.90;;;;;;5075350;28;20487;-78
2022/11/01 06:23:58;;;;;;;7.80;2.63;;;17.10;99.90;;;;;;5075488;28;20457;-79
2022/11/01 06:26:27;;;;;;;4.10;2.53;;;17.10;99.90;;;;;;5072723;28;20500;-79
2022/11/01 06:28:53;;;;;;;6.57;2.40;;;17.10;99.90;;;;;;5067820;28;20837;-79
2022/11/01 06:31:20;;;;;;;4.77;2.13;;;17.10;99.90;;;;;;5070226;28;20459;-79
2022/11/01 06:33:49;;;;;;;9.33;2.30;;;17.10;99.90;;;;;;5065626;28;20492;-79
2022/11/01 06:36:16;;;;;;;5.83;2.37;;;17.10;99.90;;;;;;5063959;28;20866;-79
2022/11/01 06:38:43;;;;;;;4.77;2.77;;;17.10;99.90;;;;;;5055743;28;21023;-80
2022/11/01 06:41:10;;;;;;;6.03;3.03;;;17.20;99.90;;;;;;5066184;28;20542;-79
2022/11/01 06:43:38;;;;;;;4.03;1.70;;;17.10;99.90;;;;;;5059381;28;20458;-78
2022/11/01 06:46:05;;;;;;;4.17;2.00;;;17.10;99.90;;;;;;5063782;28;21058;-79
2022/11/01 06:48:32;;;;;;;7.27;2.33;;;17.10;99.90;;;;;;5074161;28;20458;-79
2022/11/01 06:50:58;;;;;;;5.23;1.80;;;17.00;99.90;;;;;;5077192;28;20524;-79
2022/11/01 06:53:25;;;;;;;5.70;2.10;;;16.90;99.90;;;;;;5082997;28;20498;-80
2022/11/01 06:55:52;;;;;;;4.53;1.40;;;16.90;99.90;;;;;;5082511;28;20587;-79
2022/11/01 06:58:19;;;;;;;3.90;1.33;;;16.80;99.90;;;;;;5084210;28;20999;-80
2022/11/01 07:00:47;;;;;;;5.53;1.20;;;16.70;99.90;;;;;;5084116;28;20542;-80
2022/11/01 07:03:14;;;;;;;2.37;1.13;;;16.70;99.90;;;;;;5085261;28;20534;-80
2022/11/01 07:05:42;;;;;;;3.63;1.43;;;16.50;99.90;;;;;;5085088;28;21070;-80
2022/11/01 07:08:11;;;;;;;2.60;1.03;;;16.40;99.90;;;;;;5080687;28;20984;-79
2022/11/01 07:10:41;;;;;;;2.43;1.37;;;16.40;99.90;;;;;;5081559;28;20488;-78
2022/11/01 07:13:10;;;;;;;3.83;1.10;;;16.40;99.90;;;;;;5080348;28;20554;-81
2022/11/01 07:15:37;;;;;;;5.70;1.10;;;16.30;99.90;;;;;;5076589;28;20952;-79
2022/11/01 07:18:07;;;;;;;2.83;1.30;;;16.30;99.90;;;;;;5076125;28;20456;-81
2022/11/01 07:20:40;;;;;;;3.20;1.07;;;16.20;99.90;;;;;;5081313;28;20532;-80
2022/11/01 07:23:09;;;;;;;3.17;1.10;;;16.10;99.90;;;;;;5080676;28;20439;-80
2022/11/01 07:25:36;;;;;;;5.10;1.00;;;16.00;99.90;;;;;;5080762;28;20852;-81
2022/11/01 07:28:03;;;;;;;4.23;0.93;;;16.00;99.90;;;;;;5076385;28;20558;-80
2022/11/01 07:30:30;;;;;;;5.60;2.20;;;15.90;99.90;;;;;;5078034;28;20560;-79
2022/11/01 07:32:58;;;;;;;3.90;1.03;;;15.90;99.90;;;;;;5078168;28;20897;-80
2022/11/01 07:35:27;;;;;;;3.90;1.40;;;15.80;99.90;;;;;;5078309;28;20549;-79
2022/11/01 07:37:57;;;;;;;2.57;0.80;;;15.80;99.90;;;;;;5078481;28;20564;-80
2022/11/01 07:40:26;;;;;;;3.20;1.00;;;15.70;99.90;;;;;;5072127;28;20432;-81
2022/11/01 07:42:54;;;;;;;5.30;1.10;;;15.60;99.90;;;;;;5083710;28;20445;-78
2022/11/01 07:45:21;;;;;;;2.83;1.10;;;15.60;99.90;;;;;;5078322;28;20454;-80
2022/11/01 07:47:48;;;;;;;2.00;0.80;;;15.60;99.90;;;;;;5078047;28;20706;-80
2022/11/01 07:50:15;;;;;;;3.00;0.80;;;15.60;99.90;;;;;;5079131;28;20545;-78
2022/11/01 07:52:44;;;;;;;2.77;1.00;;;15.40;99.90;;;;;;5078604;28;20452;-79
2022/11/01 07:55:11;;;;;;;5.03;0.83;;;15.40;99.90;;;;;;5078972;28;20538;-78
2022/11/01 07:57:38;;;;;;;4.97;1.00;;;15.40;99.90;;;;;;5078582;28;20516;-78
2022/11/01 08:00:08;;;;;;;4.53;1.17;;;15.30;99.90;;;;;;5070147;28;20978;-80
2022/11/01 08:02:35;;;;;;;3.13;0.93;;;15.30;99.90;;;;;;5059045;28;20488;-78
2022/11/01 08:05:01;;;;;;;4.67;1.20;;;15.20;99.90;;;;;;5058775;28;20454;-80
2022/11/01 08:07:28;;;;;;;3.17;1.00;;;15.30;99.90;;;;;;5059082;28;20482;-81
2022/11/01 08:09:56;;;;;;;2.73;0.80;;;15.30;99.90;;;;;;5067745;28;20458;-79
2022/11/01 08:12:23;;;;;;;2.60;0.90;;;15.30;99.90;;;;;;5060811;28;20520;-79
2022/11/01 08:14:50;;;;;;;3.90;1.30;;;15.30;99.90;;;;;;5058706;28;20543;-79
2022/11/01 08:17:17;;;;;;;2.70;0.80;;;15.40;99.90;;;;;;5059991;28;20560;-79
2022/11/01 08:19:44;;;;;;;2.27;0.70;;;15.40;99.90;;;;;;5060070;28;20458;-81
2022/11/01 08:22:10;;;;;;;3.70;1.37;;;15.40;99.90;;;;;;5073597;28;20996;-80
2022/11/01 08:24:37;;;;;;;3.40;1.40;;;15.40;99.90;;;;;;5075906;28;20466;-79
2022/11/01 08:27:05;;;;;;;3.63;1.30;;;15.40;99.90;;;;;;5068469;28;20567;-80
2022/11/01 08:29:32;;;;;;;4.70;1.33;;;15.50;99.90;;;;;;5064042;28;20457;-80
2022/11/01 08:31:59;;;;;;;6.60;2.43;;;15.40;99.90;;;;;;5079636;28;20944;-79
2022/11/01 08:34:26;;;;;;;3.30;0.80;;;15.40;99.90;;;;;;5079322;28;20442;-80
2022/11/01 08:36:53;;;;;;;4.47;1.10;;;15.40;99.90;;;;;;5079995;28;20518;-82
2022/11/01 08:39:19;;;;;;;3.27;1.03;;;15.40;99.90;;;;;;5077715;28;20452;-80
2022/11/01 08:41:48;;;;;;;3.80;0.80;;;15.40;99.90;;;;;;5078790;28;20541;-80
2022/11/01 08:44:18;;;;;;;7.00;1.40;;;15.50;99.90;;;;;;5079548;28;20455;-81
2022/11/01 08:46:45;;;;;;;3.40;0.90;;;15.50;99.90;;;;;;5080473;28;20790;-80
2022/11/01 08:49:12;;;;;;;2.37;1.00;;;15.50;99.90;;;;;;5074216;28;20523;-80
2022/11/01 08:51:39;;;;;;;4.40;1.40;;;15.50;99.90;;;;;;5060455;28;20521;-79
2022/11/01 08:54:07;;;;;;;5.13;1.23;;;15.60;99.90;;;;;;5060068;28;20521;-80
2022/11/01 08:56:34;;;;;;;4.47;1.10;;;15.60;99.90;;;;;;5060395;28;20995;-81
2022/11/01 08:59:00;;;;;;;5.10;1.20;;;15.70;99.90;;;;;;5063251;28;20481;-80
2022/11/01 09:01:29;;;;;;;3.17;0.90;;;15.70;99.90;;;;;;5081703;28;20457;-82
2022/11/01 09:03:56;;;;;;;4.23;1.13;;;15.50;99.90;;;;;;5068104;28;20542;-80
2022/11/01 09:06:24;;;;;;;4.20;1.17;;;15.60;99.90;;;;;;5066020;28;20470;-79
2022/11/01 09:08:52;;;;;;;5.60;1.40;;;15.60;99.90;;;;;;5069415;28;20451;-81
2022/11/01 09:11:19;;;;;;;8.20;1.30;;;15.60;99.90;;;;;;5074689;28;20452;-80
2022/11/01 09:13:46;;;;;;;9.40;1.70;;;15.70;99.90;;;;;;5068470;28;20552;-80
2022/11/01 09:16:13;;;;;;;7.07;1.73;;;15.60;99.90;;;;;;5064486;28;20486;-80
2022/11/01 09:18:41;;;;;;;5.07;1.60;;;15.70;99.90;;;;;;5074101;28;20492;-77
2022/11/01 09:21:08;;;;;;;4.13;1.30;;;15.60;99.90;;;;;;5073428;28;20545;-77
2022/11/01 09:23:36;;;;;;;6.43;1.20;;;15.70;99.90;;;;;;5070775;28;20897;-80
2022/11/01 09:26:04;;;;;;;4.40;1.40;;;15.70;99.90;;;;;;5063553;28;21010;-80
2022/11/01 09:28:31;;;;;;;6.60;1.80;;;15.70;99.90;;;;;;5061565;28;20523;-80
2022/11/01 09:31:01;;;;;;;7.67;1.93;;;15.70;99.90;;;;;;5087335;28;20471;-79
2022/11/01 09:33:28;;;;;;;3.20;1.40;;;15.70;99.90;;;;;;5092321;28;20447;-79
2022/11/01 09:35:56;;;;;;;4.77;1.33;;;15.70;99.90;;;;;;5094081;28;20470;-79
2022/11/01 09:38:23;;;;;;;7.43;1.63;;;15.80;99.90;;;;;;5082655;28;20478;-80
2022/11/01 09:41:01;;;;;;;4.40;1.40;;;15.80;99.90;;;;;;5064853;28;20480;-79
2022/11/01 09:43:31;;;;;;;8.80;1.60;;;15.90;99.90;;;;;;5073679;28;20894;-81
2022/11/01 09:46:00;;;;;;;8.13;2.67;;;15.80;99.90;;;;;;5083268;28;20532;-80
2022/11/01 09:48:29;;;;;;;8.73;2.03;;;15.90;99.90;;;;;;5072742;28;20886;-80
2022/11/01 09:50:59;;;;;;;7.83;1.80;;;15.80;99.90;;;;;;5089338;28;20433;-80
2022/11/01 09:53:28;;;;;;;5.43;1.53;;;15.90;99.90;;;;;;5080522;28;20522;-80
2022/11/01 09:56:04;;;;;;;8.43;2.10;;;16.00;99.90;;;;;;5082700;28;20565;-80
2022/11/01 09:58:43;;;;;;;8.00;2.13;;;16.00;99.90;;;;;;5082178;28;20480;-79
2022/11/01 10:01:23;;;;;;;7.33;1.70;;;16.00;99.90;;;;;;5062543;28;20446;-79
2022/11/01 10:04:03;;;;;;;7.27;1.60;;;16.10;99.90;;;;;;5062096;28;20517;-81
2022/11/01 10:06:37;;;;;;;10.27;2.10;;;16.00;99.90;;;;;;5063114;28;20469;-80
2022/11/01 10:09:13;;;;;;;11.93;1.90;;;16.10;99.90;;;;;;5073619;28;20457;-80
2022/11/01 10:12:02;;;;;;;9.07;1.80;;;16.20;99.90;;;;;;5066048;28;20498;-81
2022/11/01 10:14:48;;;;;;;5.97;1.77;;;16.30;99.90;;;;;;5078152;28;20470;-78
2022/11/01 10:17:17;;;;;;;9.53;1.70;;;16.50;99.90;;;;;;5083029;28;20560;-80
2022/11/01 10:19:47;;;;;;;6.33;1.63;;;16.60;99.90;;;;;;5073257;28;20482;-78
2022/11/01 10:22:18;;;;;;;5.93;1.90;;;16.90;99.90;;;;;;5081992;28;20477;-80
2022/11/01 10:24:51;;;;;;;8.93;2.33;;;17.10;99.90;;;;;;5089470;28;20555;-80
2022/11/01 10:27:27;;;;;;;6.20;1.80;;;17.10;99.90;;;;;;5088557;28;20495;-79
2022/11/01 10:30:00;;;;;;;4.47;1.60;;;17.20;99.90;;;;;;5083019;28;20906;-79
2022/11/01 10:32:32;;;;;;;7.23;2.27;;;17.40;99.90;;;;;;5085292;28;20447;-80
2022/11/01 10:35:04;;;;;;;4.80;1.63;;;17.60;99.90;;;;;;5080629;28;20927;-80
2022/11/01 10:37:40;;;;;;;8.83;1.93;;;17.80;99.90;;;;;;5081462;28;20533;-80
2022/11/01 10:40:13;;;;;;;4.63;1.87;;;18.00;99.90;;;;;;5070895;28;20521;-81
2022/11/01 10:42:40;;;;;;;10.43;1.60;;;18.40;99.90;;;;;;5062527;28;20497;-81
2022/11/01 10:45:10;;;;;;;4.60;1.63;;;18.70;99.90;;;;;;5061915;28;20482;-80
2022/11/01 10:47:41;;;;;;;5.90;3.10;;;19.20;99.90;;;;;;5076834;28;20495;-81
2022/11/01 10:50:16;;;;;;;4.13;1.83;;;19.80;99.90;;;;;;5079529;28;20450;-81
2022/11/01 10:52:51;;;;;;;4.40;1.33;;;20.40;99.90;;;;;;5081993;28;20515;-80
2022/11/01 10:55:22;;;;;;;7.47;2.00;;;20.60;99.90;;;;;;5084145;28;20880;-79
2022/11/01 10:57:55;;;;;;;7.10;1.60;;;20.70;99.90;;;;;;5069569;28;20515;-80
2022/11/01 11:00:22;;;;;;;7.53;1.67;;;21.40;99.90;;;;;;5066923;28;20454;-81
2022/11/01 11:02:53;;;;;;;7.00;1.60;;;22.10;99.90;;;;;;5075517;28;20477;-79
2022/11/01 11:05:22;;;;;;;5.50;1.90;;;22.40;99.90;;;;;;5077836;28;20546;-82
2022/11/01 11:07:50;;;;;;;6.50;1.83;;;22.40;99.90;;;;;;5073623;28;20479;-80
2022/11/01 11:10:20;;;;;;;6.03;1.37;;;23.10;99.90;;;;;;5084425;28;20528;-79
2022/11/01 11:12:50;;;;;;;4.93;1.47;;;23.40;99.90;;;;;;5084978;28;20519;-80
2022/11/01 11:15:19;;;;;;;7.00;1.97;;;24.10;99.90;;;;;;5091069;28;20518;-81
2022/11/01 11:17:51;;;;;;;6.07;1.70;;;24.90;99.90;;;;;;5074093;28;20503;-81
2022/11/01 11:20:21;;;;;;;7.20;2.20;;;24.70;99.90;;;;;;5085454;28;20522;-81
2022/11/01 11:22:49;;;;;;;4.87;1.80;;;24.40;99.90;;;;;;5085776;28;21076;-80
2022/11/01 11:25:19;;;;;;;5.90;2.17;;;25.10;98.80;;;;;;5080558;28;20523;-79
2022/11/01 11:27:48;;;;;;;3.37;1.40;;;25.30;97.20;;;;;;5064474;28;20483;-81
2022/11/01 11:30:27;;;;;;;6.57;1.97;;;24.90;97.30;;;;;;5069139;28;20483;-83
2022/11/01 11:32:54;;;;;;;5.40;1.40;;;25.00;95.40;;;;;;5077916;28;20442;-81
2022/11/01 11:35:23;;;;;;;4.63;1.40;;;25.10;95.40;;;;;;5085591;28;20515;-82
2022/11/01 11:37:57;;;;;;;6.93;1.80;;;25.10;94.50;;;;;;5064007;28;20568;-80
2022/11/01 11:40:26;;;;;;;7.37;1.80;;;24.70;93.30;;;;;;5065175;28;20466;-79
2022/11/01 11:42:54;;;;;;;7.73;1.77;;;24.80;93.10;;;;;;5083007;28;20486;-82
2022/11/01 11:45:26;;;;;;;5.80;1.30;;;25.50;94.10;;;;;;5080849;28;20444;-83
2022/11/01 11:47:53;;;;;;;6.37;2.10;;;26.10;93.40;;;;;;5061606;28;20501;-80
2022/11/01 11:50:27;;;;;;;10.63;2.20;;;25.80;92.90;;;;;;5076035;28;20480;-82
2022/11/01 11:53:00;;;;;;;5.33;1.90;;;25.60;92.00;;;;;;5081201;28;20439;-80
2022/11/01 11:55:37;;;;;;;4.23;1.60;;;25.30;91.30;;;;;;5063610;28;20544;-81
2022/11/01 11:58:06;;;;;;;7.50;2.07;;;25.40;90.50;;;;;;5065394;28;20471;-81
2022/11/01 12:00:38;;;;;;;6.13;1.90;;;25.50;91.30;;;;;;5071358;28;20444;-80
2022/11/01 12:03:07;;;;;;;6.30;1.77;;;25.80;90.60;;;;;;5084097;28;20467;-84
2022/11/01 12:05:34;;;;;;;5.37;1.67;;;25.90;90.30;;;;;;5086065;28;20447;-82
2022/11/01 12:08:03;;;;;;;5.77;1.80;;;26.40;90.80;;;;;;5065965;28;20452;-81
2022/11/01 12:10:33;;;;;;;7.10;2.13;;;26.50;89.50;;;;;;5088038;28;20458;-81
2022/11/01 12:13:00;;;;;;;5.67;1.70;;;26.10;87.50;;;;;;5078163;28;20467;-82
2022/11/01 12:15:29;;;;;;;7.27;1.80;;;25.40;86.40;;;;;;5085757;28;20825;-79
2022/11/01 12:17:57;;;;;;;7.87;1.50;;;24.80;89.60;;;;;;5068261;28;20596;-82
2022/11/01 12:20:26;;;;;;;9.67;1.50;;;24.30;87.80;;;;;;5062310;28;20876;-81
2022/11/01 12:23:00;;;;;;;7.00;1.60;;;23.60;87.80;;;;;;5075887;28;20732;-80
2022/11/01 12:25:28;;;;;;;5.80;1.70;;;23.00;89.00;;;;;;5078277;28;20546;-80
2022/11/01 12:27:59;;;;;;;7.97;1.50;;;22.40;90.30;;;;;;5060568;28;20551;-81
2022/11/01 12:30:28;;;;;;;6.50;1.90;;;21.90;90.80;;;;;;5070487;28;20447;-80
2022/11/01 12:32:57;;;;;;;6.27;1.77;;;21.50;92.10;;;;;;5079231;28;20530;-80
2022/11/01 12:35:28;;;;;;;7.40;1.63;;;21.20;92.50;;;;;;5059043;28;20998;-79
2022/11/01 12:38:32;;;;;;;6.03;1.97;;;20.80;92.50;;;;;;5079813;28;20487;-80
2022/11/01 12:41:13;;;;;;;5.53;1.57;;;20.50;94.00;;;;;;5078577;28;20526;-79
2022/11/01 12:43:57;;;;;;;7.03;1.90;;;20.20;94.70;;;;;;5079221;28;20538;-79
2022/11/01 12:46:31;;;;;;;5.90;1.83;;;20.30;95.00;;;;;;5081338;28;20486;-82
2022/11/01 12:49:05;;;;;;;4.40;1.27;;;21.10;96.00;;;;;;5080299;28;21065;-82
2022/11/01 12:51:37;;;;;;;6.77;1.90;;;21.80;94.60;;;;;;5079958;28;20518;-80
2022/11/01 12:54:12;;;;;;;5.03;1.50;;;22.40;93.50;;;;;;5071231;28;20452;-81
2022/11/01 12:56:40;;;;;;;3.03;1.20;;;22.70;92.90;;;;;;5061406;28;20562;-82
2022/11/01 12:59:10;;;;;;;4.83;1.70;;;22.90;93.00;;;;;;5060907;28;20548;-80
2022/11/01 13:01:46;;;;;;;7.00;1.50;;;23.20;92.90;;;;;;5061983;28;20479;-80
2022/11/01 13:04:20;;;;;;;6.70;1.90;;;23.80;92.50;;;;;;5073923;28;20443;-80
2022/11/01 13:07:00;;;;;;;10.47;2.17;;;23.90;92.00;;;;;;5086182;28;20542;-81